Time;durP1;ratioP1;P1;durP2;ratioP2;P2;SDS_P1;SDS_P2;PMS_P1;PMS_P2;Temp;Humidity;BMP_temperature;BMP_pressure;BME280_temperature;BME280_humidity;BME280_pressure;Samples;Min_cycle;Max_cycle;Signal;HPM_P1;HPM_P2
2022/11/19 00:00:44;;;;;;;6.22;4.30;;;1.60;99.90;;;;;;5095933;27;20395;-75
2022/11/19 00:03:11;;;;;;;6.60;4.40;;;1.60;99.90;;;;;;5131823;27;20410;-74
2022/11/19 00:05:41;;;;;;;5.80;3.97;;;1.60;99.90;;;;;;5109382;28;20408;-75
2022/11/19 00:08:07;;;;;;;6.83;4.20;;;1.50;99.90;;;;;;5118367;27;20405;-74
2022/11/19 00:10:37;;;;;;;5.97;4.00;;;1.50;99.90;;;;;;5102462;28;20408;-75
2022/11/19 00:13:04;;;;;;;6.07;3.90;;;1.50;99.90;;;;;;5128797;27;20518;-75
2022/11/19 00:15:29;;;;;;;6.72;3.80;;;1.50;99.90;;;;;;5124418;27;20401;-74
2022/11/19 00:17:59;;;;;;;5.40;3.90;;;1.40;99.90;;;;;;5124997;27;20390;-74
2022/11/19 00:20:25;;;;;;;4.88;3.60;;;1.40;99.90;;;;;;5125556;27;20487;-74
2022/11/19 00:22:52;;;;;;;6.07;4.40;;;1.40;99.90;;;;;;5125112;27;20386;-75
2022/11/19 00:25:18;;;;;;;6.07;4.18;;;1.40;99.90;;;;;;5129631;27;20394;-75
2022/11/19 00:27:43;;;;;;;5.88;4.00;;;1.40;99.90;;;;;;5105351;28;20467;-75
2022/11/19 00:30:10;;;;;;;5.53;3.80;;;1.40;99.90;;;;;;5110659;28;20493;-73
2022/11/19 00:32:35;;;;;;;6.07;3.77;;;1.30;99.90;;;;;;5131000;27;20394;-73
2022/11/19 00:35:01;;;;;;;6.07;4.13;;;1.40;99.90;;;;;;5110603;27;20407;-74
2022/11/19 00:37:26;;;;;;;5.80;4.18;;;1.40;99.90;;;;;;5106648;28;20859;-74
2022/11/19 00:39:53;;;;;;;6.07;4.27;;;1.30;99.90;;;;;;5105347;27;20431;-74
2022/11/19 00:42:19;;;;;;;6.78;4.15;;;1.30;99.90;;;;;;5126711;27;20771;-74
2022/11/19 00:44:45;;;;;;;6.57;4.53;;;1.30;99.90;;;;;;5099776;27;20511;-74
2022/11/19 00:47:11;;;;;;;6.25;4.47;;;1.30;99.90;;;;;;5118989;27;20489;-75
2022/11/19 00:49:36;;;;;;;7.32;4.70;;;1.30;99.90;;;;;;5130730;27;20418;-75
2022/11/19 00:52:02;;;;;;;7.43;4.50;;;1.30;99.90;;;;;;5129855;27;20403;-74
2022/11/19 00:54:27;;;;;;;6.00;4.37;;;1.30;99.90;;;;;;5129376;27;20456;-75
2022/11/19 00:56:53;;;;;;;7.03;4.43;;;1.30;99.90;;;;;;5108209;28;20395;-74
2022/11/19 00:59:19;;;;;;;6.67;4.47;;;1.30;99.90;;;;;;5110383;27;20818;-74
2022/11/19 01:01:44;;;;;;;7.27;4.97;;;1.30;99.90;;;;;;5111845;27;20531;-75
2022/11/19 01:04:10;;;;;;;6.78;4.70;;;1.30;99.90;;;;;;5102312;28;20954;-74
2022/11/19 01:06:36;;;;;;;7.53;4.57;;;1.30;99.90;;;;;;5127195;27;20441;-74
2022/11/19 01:09:02;;;;;;;6.90;4.63;;;1.30;99.90;;;;;;5101834;28;20470;-74
2022/11/19 01:11:31;;;;;;;8.60;5.35;;;1.30;99.90;;;;;;5129967;27;20445;-74
2022/11/19 01:13:58;;;;;;;7.67;4.80;;;1.30;99.90;;;;;;5129601;27;20420;-74
2022/11/19 01:16:25;;;;;;;6.88;4.65;;;1.20;99.90;;;;;;5078431;28;20420;-74
2022/11/19 01:18:52;;;;;;;6.97;4.30;;;1.20;99.90;;;;;;5106235;27;20795;-74
2022/11/19 01:21:20;;;;;;;6.73;4.90;;;1.20;99.90;;;;;;5128535;27;20398;-74
2022/11/19 01:23:45;;;;;;;5.70;4.22;;;1.20;99.90;;;;;;5119695;27;20408;-74
2022/11/19 01:26:12;;;;;;;7.35;4.78;;;1.10;99.90;;;;;;5130227;27;20391;-74
2022/11/19 01:28:37;;;;;;;7.22;4.68;;;1.10;99.90;;;;;;5129756;27;20414;-74
2022/11/19 01:31:12;;;;;;;6.60;4.60;;;1.10;99.90;;;;;;5122140;27;20396;-74
2022/11/19 01:33:38;;;;;;;7.80;4.97;;;1.00;99.90;;;;;;5104778;27;20500;-74
2022/11/19 01:36:10;;;;;;;8.90;5.45;;;1.00;99.90;;;;;;5121649;27;20488;-74
2022/11/19 01:38:36;;;;;;;7.32;5.30;;;1.00;99.90;;;;;;5114077;27;20489;-74
2022/11/19 01:41:02;;;;;;;7.88;5.32;;;0.90;99.90;;;;;;5119814;27;20501;-74
2022/11/19 01:44:01;;;;;;;9.32;5.45;;;0.90;99.90;;;;;;5122387;27;20807;-74
2022/11/19 01:46:32;;;;;;;7.53;5.10;;;0.80;99.90;;;;;;5086032;27;20445;-73
2022/11/19 01:49:14;;;;;;;7.93;5.15;;;0.80;99.90;;;;;;5095021;27;20463;-74
2022/11/19 01:51:47;;;;;;;6.95;4.50;;;0.80;99.90;;;;;;5110376;27;20903;-74
2022/11/19 01:54:40;;;;;;;7.30;5.00;;;0.80;99.90;;;;;;5121427;27;20485;-74
2022/11/19 01:57:09;;;;;;;7.78;5.35;;;0.80;99.90;;;;;;5084585;28;20434;-74
2022/11/19 01:59:35;;;;;;;6.80;4.72;;;0.70;99.90;;;;;;5109998;28;20992;-74
2022/11/19 02:02:00;;;;;;;7.07;4.93;;;0.70;99.90;;;;;;5122212;27;20602;-74
2022/11/19 02:04:27;;;;;;;8.13;5.20;;;0.70;99.90;;;;;;5123500;27;20405;-74
2022/11/19 02:06:53;;;;;;;7.38;4.97;;;0.70;99.90;;;;;;5129111;27;20801;-74
2022/11/19 02:09:19;;;;;;;7.40;5.07;;;0.70;99.90;;;;;;5122587;27;20428;-74
2022/11/19 02:12:02;;;;;;;8.52;5.35;;;0.70;99.90;;;;;;5124088;27;20399;-74
2022/11/19 02:14:43;;;;;;;8.27;5.13;;;0.60;99.90;;;;;;5129401;27;20403;-74
2022/11/19 02:17:23;;;;;;;8.07;5.30;;;0.60;99.90;;;;;;5129096;27;20403;-74
2022/11/19 02:20:10;;;;;;;7.20;5.10;;;0.60;99.90;;;;;;5125004;27;20823;-74
2022/11/19 02:22:45;;;;;;;7.70;5.07;;;0.60;99.90;;;;;;5129455;27;20442;-74
2022/11/19 02:25:29;;;;;;;8.07;4.87;;;0.60;99.90;;;;;;5129878;27;20407;-74
2022/11/19 02:28:24;;;;;;;7.70;4.80;;;0.60;99.90;;;;;;5123123;27;20439;-74
2022/11/19 02:30:56;;;;;;;6.95;4.53;;;0.60;99.90;;;;;;5091499;28;20408;-74
2022/11/19 02:33:33;;;;;;;7.72;5.45;;;0.50;99.90;;;;;;5116084;27;20810;-74
2022/11/19 02:36:08;;;;;;;8.83;5.37;;;0.50;99.90;;;;;;5129036;27;20904;-74
2022/11/19 02:38:38;;;;;;;7.50;5.28;;;0.50;99.90;;;;;;5128762;27;20441;-74
2022/11/19 02:41:34;;;;;;;7.32;4.90;;;0.50;99.90;;;;;;5129133;27;20460;-74
2022/11/19 02:47:04;;;;;;;10.55;5.72;;;0.50;99.90;;;;;;5122868;27;20415;-74
2022/11/19 02:49:32;;;;;;;9.57;5.22;;;0.40;99.90;;;;;;5119423;27;20394;-74
2022/11/19 02:51:59;;;;;;;7.72;5.38;;;0.40;99.90;;;;;;5128207;27;20405;-74
2022/11/19 02:54:26;;;;;;;6.88;4.50;;;0.40;99.90;;;;;;5129640;27;20401;-73
2022/11/19 02:56:57;;;;;;;7.10;4.53;;;0.40;99.90;;;;;;5128891;27;20395;-74
2022/11/19 03:05:26;;;;;;;7.22;4.65;;;0.40;99.90;;;;;;5116294;27;20407;-74
2022/11/19 03:07:52;;;;;;;8.98;5.13;;;0.40;99.90;;;;;;5115217;27;20404;-74
2022/11/19 03:10:21;;;;;;;6.85;4.68;;;0.40;99.90;;;;;;5128975;28;20390;-75
2022/11/19 03:12:57;;;;;;;8.25;5.35;;;0.40;99.90;;;;;;5128770;28;20421;-73
2022/11/19 03:18:46;;;;;;;6.20;4.50;;;0.30;99.90;;;;;;5114617;28;20431;-74
2022/11/19 03:21:22;;;;;;;6.97;4.47;;;0.30;99.90;;;;;;5109882;27;20407;-74
2022/11/19 03:24:01;;;;;;;7.35;4.97;;;0.30;99.90;;;;;;5111725;28;20452;-74
2022/11/19 03:26:35;;;;;;;7.60;4.68;;;0.30;99.90;;;;;;5114355;27;20402;-74
2022/11/19 03:29:08;;;;;;;7.30;4.90;;;0.30;99.90;;;;;;5131676;27;20398;-74
2022/11/19 03:31:37;;;;;;;7.78;4.97;;;0.30;99.90;;;;;;5122986;27;20391;-74
2022/11/19 03:34:09;;;;;;;6.50;4.63;;;0.30;99.90;;;;;;5132607;27;20892;-75
2022/11/19 03:36:38;;;;;;;7.80;5.38;;;0.30;99.90;;;;;;5122332;27;20404;-75
2022/11/19 03:39:11;;;;;;;7.82;5.32;;;0.30;99.90;;;;;;5117508;27;20482;-74
2022/11/19 03:41:39;;;;;;;7.00;4.82;;;0.20;99.90;;;;;;5132828;27;20414;-74
2022/11/19 03:44:31;;;;;;;8.15;5.00;;;0.20;99.90;;;;;;5097840;28;20920;-74
2022/11/19 03:47:19;;;;;;;6.90;4.70;;;0.20;99.90;;;;;;5102648;27;20412;-74
2022/11/19 03:49:49;;;;;;;7.50;4.78;;;0.20;99.90;;;;;;5124699;27;20764;-74
2022/11/19 03:52:18;;;;;;;6.78;4.55;;;0.20;99.90;;;;;;5083258;27;20406;-74
2022/11/19 03:54:44;;;;;;;8.45;5.00;;;0.20;99.90;;;;;;5132980;27;20598;-74
2022/11/19 03:57:13;;;;;;;7.07;5.03;;;0.20;99.90;;;;;;5131753;27;20588;-74
2022/11/19 03:59:39;;;;;;;7.63;4.80;;;0.20;99.90;;;;;;5132513;27;21029;-74
2022/11/19 04:02:09;;;;;;;8.00;5.60;;;0.20;99.90;;;;;;5128254;27;20481;-74
2022/11/19 04:04:36;;;;;;;7.20;4.93;;;0.20;99.90;;;;;;5113515;27;20400;-74
2022/11/19 04:07:09;;;;;;;8.52;4.90;;;0.20;99.90;;;;;;5124966;27;20411;-74
2022/11/19 04:09:35;;;;;;;7.65;4.93;;;0.20;99.90;;;;;;5123016;27;20485;-74
2022/11/19 04:12:01;;;;;;;7.28;4.70;;;0.20;99.90;;;;;;5132065;27;20398;-75
2022/11/19 04:14:27;;;;;;;7.53;4.70;;;0.20;99.90;;;;;;5129540;27;20744;-74
2022/11/19 04:16:53;;;;;;;6.28;4.57;;;0.20;99.90;;;;;;5101990;27;20411;-74
2022/11/19 04:19:19;;;;;;;7.50;4.72;;;0.20;99.90;;;;;;5131976;27;20422;-74
2022/11/19 04:21:45;;;;;;;7.35;4.65;;;0.10;99.90;;;;;;5131311;27;20402;-73
2022/11/19 04:24:10;;;;;;;7.03;4.73;;;0.10;99.90;;;;;;5129961;27;20431;-74
2022/11/19 04:26:36;;;;;;;6.90;4.40;;;0.10;99.90;;;;;;5109412;27;20411;-74
2022/11/19 04:29:02;;;;;;;6.53;4.32;;;0.10;99.90;;;;;;5113186;27;20403;-74
2022/11/19 04:31:27;;;;;;;7.43;4.70;;;0.10;99.90;;;;;;5131705;27;20402;-74
2022/11/19 04:33:53;;;;;;;7.87;4.57;;;0.10;99.90;;;;;;5131364;27;20409;-74
2022/11/19 04:36:19;;;;;;;6.75;4.70;;;0.10;99.90;;;;;;5132197;27;20487;-74
2022/11/19 04:38:44;;;;;;;5.90;4.13;;;0.10;99.90;;;;;;5131653;27;20482;-74
2022/11/19 04:41:10;;;;;;;7.40;4.37;;;0.10;99.90;;;;;;5113023;27;20417;-73
2022/11/19 04:43:35;;;;;;;6.70;4.53;;;0.10;99.90;;;;;;5112216;27;21051;-73
2022/11/19 04:46:01;;;;;;;6.47;4.57;;;0.10;99.90;;;;;;5112835;27;20399;-74
2022/11/19 04:48:27;;;;;;;6.83;4.57;;;0.10;99.90;;;;;;5131709;27;20399;-73
2022/11/19 04:50:52;;;;;;;5.90;4.22;;;0.20;99.90;;;;;;5131468;27;20447;-74
2022/11/19 04:53:18;;;;;;;6.20;4.33;;;0.10;99.90;;;;;;5131202;27;20402;-73
2022/11/19 04:55:44;;;;;;;6.80;4.55;;;0.10;99.90;;;;;;5109801;28;20405;-74
2022/11/19 04:58:10;;;;;;;6.87;4.77;;;0.10;99.90;;;;;;5106423;27;20414;-73
2022/11/19 05:00:35;;;;;;;7.20;4.45;;;0.10;99.90;;;;;;5117332;27;20426;-74
2022/11/19 05:03:01;;;;;;;6.30;4.20;;;0.10;99.90;;;;;;5117380;27;20967;-74
2022/11/19 05:05:27;;;;;;;6.63;4.13;;;0.10;99.90;;;;;;5130765;27;20802;-74
2022/11/19 05:07:52;;;;;;;6.82;4.32;;;0.10;99.90;;;;;;5131318;27;20390;-74
2022/11/19 05:10:18;;;;;;;7.20;4.30;;;0.10;99.90;;;;;;5131147;27;20394;-74
2022/11/19 05:12:43;;;;;;;6.50;4.10;;;0.10;99.90;;;;;;5112809;27;20990;-73
2022/11/19 05:15:09;;;;;;;6.68;4.35;;;0.10;99.90;;;;;;5131011;27;21329;-74
2022/11/19 05:17:35;;;;;;;8.45;4.55;;;0.10;99.90;;;;;;5116841;27;20412;-74
2022/11/19 05:20:01;;;;;;;7.00;4.35;;;0.10;99.90;;;;;;5112329;27;20464;-74
2022/11/19 05:22:26;;;;;;;5.72;4.25;;;0.10;99.90;;;;;;5111872;27;20410;-74
2022/11/19 05:24:52;;;;;;;6.93;4.00;;;0.10;99.90;;;;;;5131346;27;20402;-74
2022/11/19 05:27:18;;;;;;;6.80;4.25;;;0.10;99.90;;;;;;5130728;27;20458;-74
2022/11/19 05:29:43;;;;;;;6.10;4.00;;;0.10;99.90;;;;;;5108594;28;20491;-74
2022/11/19 05:32:09;;;;;;;7.57;4.53;;;0.00;99.90;;;;;;5108753;27;20404;-74
2022/11/19 05:34:35;;;;;;;6.07;3.95;;;0.00;99.90;;;;;;5100408;28;20408;-74
2022/11/19 05:37:00;;;;;;;6.30;3.90;;;0.00;99.90;;;;;;5105269;27;20489;-74
2022/11/19 05:39:26;;;;;;;7.17;4.37;;;0.00;99.90;;;;;;5109133;28;20798;-74
2022/11/19 05:41:51;;;;;;;7.38;4.47;;;0.00;99.90;;;;;;5124266;27;20451;-74
2022/11/19 05:44:17;;;;;;;5.80;3.97;;;0.00;99.90;;;;;;5129848;27;20745;-73
2022/11/19 05:46:43;;;;;;;6.20;4.20;;;0.00;99.90;;;;;;5109688;27;20909;-73
2022/11/19 05:49:08;;;;;;;7.15;4.00;;;0.00;99.90;;;;;;5109127;28;20392;-73
2022/11/19 05:51:34;;;;;;;6.20;4.10;;;0.00;99.90;;;;;;5124169;27;20498;-74
2022/11/19 05:54:00;;;;;;;5.80;3.72;;;0.00;99.90;;;;;;5130523;27;20753;-74
2022/11/19 05:56:26;;;;;;;6.83;4.10;;;0.10;99.90;;;;;;5129904;27;20387;-74
2022/11/19 05:58:51;;;;;;;6.88;4.30;;;0.10;99.90;;;;;;5108346;28;20528;-74
2022/11/19 06:01:24;;;;;;;5.60;3.83;;;0.10;99.90;;;;;;5123076;27;20481;-75
2022/11/19 06:03:50;;;;;;;7.18;4.20;;;0.10;99.90;;;;;;5117342;27;20407;-74
2022/11/19 06:06:16;;;;;;;5.93;4.03;;;0.10;99.90;;;;;;5092270;28;20405;-74
2022/11/19 06:08:41;;;;;;;7.50;4.07;;;0.10;99.90;;;;;;5130465;27;20394;-74
2022/11/19 06:11:46;;;;;;;6.75;4.40;;;0.10;99.90;;;;;;5108925;27;20541;-74
2022/11/19 06:13:53;;;;;;;5.45;3.92;;;0.10;99.90;;;;;;5107505;28;20519;-73
2022/11/19 06:16:18;;;;;;;7.40;3.80;;;0.10;99.90;;;;;;5125205;27;20493;-74
2022/11/19 06:18:44;;;;;;;6.63;4.22;;;0.20;99.90;;;;;;5130025;27;20930;-74
2022/11/19 06:21:09;;;;;;;6.00;4.27;;;0.20;99.90;;;;;;5124912;27;20411;-74
2022/11/19 06:23:35;;;;;;;6.13;4.10;;;0.20;99.90;;;;;;5092877;28;20439;-74
2022/11/19 06:26:01;;;;;;;7.77;4.30;;;0.20;99.90;;;;;;5119992;27;20483;-74
2022/11/19 06:28:27;;;;;;;6.07;4.40;;;0.20;99.90;;;;;;5121800;27;20752;-74
2022/11/19 06:30:53;;;;;;;8.40;4.40;;;0.10;99.90;;;;;;5127336;27;20398;-74
2022/11/19 06:33:18;;;;;;;6.32;4.07;;;0.10;99.90;;;;;;5127586;27;20757;-74
2022/11/19 06:35:44;;;;;;;6.37;4.60;;;0.10;99.90;;;;;;5129931;27;20435;-74
2022/11/19 06:38:09;;;;;;;7.20;4.70;;;0.10;99.90;;;;;;5129533;27;20420;-74
2022/11/19 06:40:35;;;;;;;7.05;4.35;;;0.10;99.90;;;;;;5109496;27;20434;-73
2022/11/19 06:43:01;;;;;;;6.17;4.23;;;0.10;99.90;;;;;;5101035;28;20836;-74
2022/11/19 06:45:26;;;;;;;6.28;4.40;;;0.10;99.90;;;;;;5115227;27;20414;-75
2022/11/19 06:47:52;;;;;;;6.35;4.40;;;0.10;99.90;;;;;;5129133;27;20435;-74
2022/11/19 06:50:18;;;;;;;6.53;4.43;;;0.10;99.90;;;;;;5123851;27;20391;-75
2022/11/19 06:52:44;;;;;;;6.45;4.25;;;0.10;99.90;;;;;;5129743;27;20723;-74
2022/11/19 06:55:10;;;;;;;6.45;4.60;;;0.10;99.90;;;;;;5128165;27;20403;-74
2022/11/19 06:57:35;;;;;;;6.50;4.40;;;0.00;99.90;;;;;;5129460;27;20413;-74
2022/11/19 07:00:01;;;;;;;7.18;4.47;;;0.00;99.90;;;;;;5115238;27;20938;-74
2022/11/19 07:02:27;;;;;;;7.13;4.50;;;0.00;99.90;;;;;;5129030;27;20401;-74
2022/11/19 07:04:53;;;;;;;6.63;4.55;;;0.00;99.90;;;;;;5129446;27;20391;-74
2022/11/19 07:07:19;;;;;;;7.17;4.87;;;0.00;99.90;;;;;;5119075;27;20435;-74
2022/11/19 07:09:45;;;;;;;7.60;4.97;;;0.00;99.90;;;;;;5121600;28;20764;-74
2022/11/19 07:12:11;;;;;;;7.28;5.15;;;0.00;99.90;;;;;;5107697;28;20407;-74
2022/11/19 07:14:36;;;;;;;9.93;5.70;;;-0.10;99.90;;;;;;5110014;28;20403;-73
2022/11/19 07:17:02;;;;;;;8.43;5.07;;;-0.20;99.90;;;;;;5106915;28;20750;-73
2022/11/19 07:19:28;;;;;;;10.70;6.65;;;-0.10;99.90;;;;;;5127757;28;20915;-73
2022/11/19 07:21:53;;;;;;;9.18;5.90;;;-0.20;99.90;;;;;;5127845;28;20399;-73
2022/11/19 07:24:19;;;;;;;7.32;4.65;;;-0.20;99.90;;;;;;5128054;28;20399;-73
2022/11/19 07:26:45;;;;;;;6.60;4.80;;;-0.20;99.90;;;;;;5127823;28;20405;-74
2022/11/19 07:29:13;;;;;;;8.65;4.57;;;-0.20;99.90;;;;;;5095490;28;20410;-73
2022/11/19 07:31:38;;;;;;;6.15;4.20;;;-0.20;99.90;;;;;;5108176;28;20439;-73
2022/11/19 07:34:09;;;;;;;7.32;4.22;;;-0.20;99.90;;;;;;5121505;28;20426;-73
2022/11/19 07:36:35;;;;;;;6.20;4.40;;;-0.20;99.90;;;;;;5117217;28;20423;-73
2022/11/19 07:39:00;;;;;;;7.05;4.28;;;-0.20;99.90;;;;;;5125052;28;20418;-73
2022/11/19 07:44:10;;;;;;;7.00;3.80;;;-0.10;99.90;;;;;;5105427;28;20525;-73
2022/11/19 07:46:36;;;;;;;6.27;4.17;;;0.00;99.90;;;;;;5102008;28;20458;-73
2022/11/19 07:49:02;;;;;;;5.57;3.60;;;0.10;99.90;;;;;;5127609;28;20446;-73
2022/11/19 07:51:28;;;;;;;5.38;3.45;;;0.10;99.90;;;;;;5127650;28;20391;-73
2022/11/19 07:53:55;;;;;;;6.90;3.90;;;0.20;99.90;;;;;;5127049;28;20489;-73
2022/11/19 07:56:21;;;;;;;6.78;3.70;;;0.20;99.90;;;;;;5107235;28;21160;-73
2022/11/19 07:58:47;;;;;;;7.63;4.25;;;0.20;99.90;;;;;;5127613;28;20418;-73
2022/11/19 08:01:18;;;;;;;6.80;4.45;;;0.30;99.90;;;;;;5123661;28;20481;-74
2022/11/19 08:03:45;;;;;;;8.95;4.90;;;0.30;99.90;;;;;;5094799;28;20499;-74
2022/11/19 08:06:12;;;;;;;7.57;4.35;;;0.30;99.90;;;;;;5111673;27;20407;-74
2022/11/19 08:08:38;;;;;;;7.15;4.13;;;0.30;99.90;;;;;;5132085;27;20395;-73
2022/11/19 08:11:06;;;;;;;6.72;4.72;;;0.30;99.90;;;;;;5132678;27;20394;-74
2022/11/19 08:13:33;;;;;;;6.67;3.87;;;0.30;99.90;;;;;;5131146;27;20394;-73
2022/11/19 08:16:00;;;;;;;5.70;3.78;;;0.40;99.90;;;;;;5110238;27;20487;-74
2022/11/19 08:18:27;;;;;;;6.50;4.10;;;0.40;99.90;;;;;;5099537;28;20930;-73
2022/11/19 08:20:52;;;;;;;6.72;4.40;;;0.40;99.90;;;;;;5116839;27;21023;-73
2022/11/19 08:23:18;;;;;;;6.60;4.03;;;0.40;99.90;;;;;;5132502;27;20477;-73
2022/11/19 08:25:44;;;;;;;7.07;4.47;;;0.40;99.90;;;;;;5122267;27;20400;-73
2022/11/19 08:28:10;;;;;;;7.15;4.70;;;0.40;99.90;;;;;;5110035;28;20404;-74
2022/11/19 08:30:39;;;;;;;6.85;4.70;;;0.50;99.90;;;;;;5109216;27;20422;-74
2022/11/19 08:33:05;;;;;;;6.47;4.50;;;0.50;99.90;;;;;;5131864;27;20387;-74
2022/11/19 08:35:31;;;;;;;6.68;4.57;;;0.50;99.90;;;;;;5113592;27;20414;-74
2022/11/19 08:37:57;;;;;;;6.57;4.70;;;0.50;99.90;;;;;;5113827;27;20474;-74
2022/11/19 08:40:24;;;;;;;7.28;5.00;;;0.50;99.90;;;;;;5113146;27;20426;-74
2022/11/19 08:42:59;;;;;;;7.57;4.93;;;0.50;99.90;;;;;;5088425;28;20480;-74
2022/11/19 08:45:35;;;;;;;8.20;4.73;;;0.50;99.90;;;;;;5121329;27;20539;-75
2022/11/19 08:48:04;;;;;;;7.30;4.93;;;0.50;99.90;;;;;;5089909;28;20408;-75
2022/11/19 08:50:30;;;;;;;7.27;4.67;;;0.60;99.90;;;;;;5129941;27;20737;-75
2022/11/19 08:53:01;;;;;;;7.05;4.60;;;0.60;99.90;;;;;;5110606;27;20398;-73
2022/11/19 08:55:29;;;;;;;7.18;4.88;;;0.60;99.90;;;;;;5129282;27;20399;-73
2022/11/19 08:58:03;;;;;;;6.47;4.57;;;0.60;99.90;;;;;;5109983;27;20417;-73
2022/11/19 09:00:30;;;;;;;6.97;4.72;;;0.60;99.90;;;;;;5115481;27;20794;-74
2022/11/19 09:02:56;;;;;;;6.80;4.22;;;0.60;99.90;;;;;;5121388;27;20480;-74
2022/11/19 09:05:22;;;;;;;6.78;4.90;;;0.60;99.90;;;;;;5124615;27;20413;-75
2022/11/19 09:07:47;;;;;;;7.32;4.47;;;0.60;99.90;;;;;;5130053;27;20398;-75
2022/11/19 09:10:13;;;;;;;6.50;4.33;;;0.70;99.90;;;;;;5105143;28;20771;-74
2022/11/19 09:12:39;;;;;;;6.70;4.55;;;0.70;99.90;;;;;;5129850;27;20413;-74
2022/11/19 09:15:05;;;;;;;8.00;4.72;;;0.70;99.90;;;;;;5128737;27;20919;-75
2022/11/19 09:17:31;;;;;;;7.00;4.53;;;0.70;99.90;;;;;;5120065;27;20409;-74
2022/11/19 09:19:57;;;;;;;10.68;4.72;;;0.70;99.90;;;;;;5129181;27;20430;-74
2022/11/19 09:22:22;;;;;;;8.48;5.22;;;0.80;99.90;;;;;;5089628;28;20491;-75
2022/11/19 09:24:48;;;;;;;6.73;4.83;;;0.80;99.90;;;;;;5120590;27;20400;-75
2022/11/19 09:27:13;;;;;;;6.43;4.72;;;0.90;99.90;;;;;;5104360;28;20425;-75
2022/11/19 09:29:39;;;;;;;6.45;4.88;;;0.90;99.90;;;;;;5114997;27;20559;-75
2022/11/19 09:32:05;;;;;;;6.97;4.63;;;0.90;99.90;;;;;;5107533;28;20759;-75
2022/11/19 09:34:30;;;;;;;6.63;4.93;;;0.90;99.90;;;;;;5124533;27;20399;-74
2022/11/19 09:36:57;;;;;;;6.75;4.57;;;1.00;99.90;;;;;;5081878;27;20465;-75
2022/11/19 09:39:23;;;;;;;8.27;5.25;;;1.00;99.90;;;;;;5128557;27;20530;-75
2022/11/19 09:42:07;;;;;;;7.97;5.20;;;1.00;99.90;;;;;;5125288;27;20927;-75
2022/11/19 09:45:18;;;;;;;6.95;4.80;;;1.10;99.90;;;;;;5127346;27;20427;-75
2022/11/19 09:48:12;;;;;;;7.05;4.85;;;1.10;99.90;;;;;;5106560;27;20477;-75
2022/11/19 09:50:54;;;;;;;8.00;4.80;;;1.10;99.90;;;;;;5105303;27;20435;-74
2022/11/19 09:53:21;;;;;;;6.85;4.57;;;1.10;99.90;;;;;;5127587;27;20421;-75
2022/11/19 09:55:51;;;;;;;6.95;4.78;;;1.20;99.90;;;;;;5128887;27;20406;-75
2022/11/19 09:58:41;;;;;;;6.77;4.57;;;1.20;99.90;;;;;;5109709;27;20422;-75
2022/11/19 10:01:16;;;;;;;6.28;4.30;;;1.30;99.90;;;;;;5127852;27;20413;-75
2022/11/19 10:03:49;;;;;;;6.10;3.97;;;1.30;99.90;;;;;;5126643;27;20527;-75
2022/11/19 10:06:28;;;;;;;6.47;4.47;;;1.30;99.90;;;;;;5123972;27;20406;-74
2022/11/19 10:09:18;;;;;;;6.55;4.18;;;1.40;99.90;;;;;;5117753;27;20431;-75
2022/11/19 10:11:44;;;;;;;6.13;3.83;;;1.40;99.90;;;;;;5116604;27;20419;-74
2022/11/19 10:14:37;;;;;;;6.53;4.20;;;1.40;99.90;;;;;;5098191;28;20435;-75
2022/11/19 10:17:23;;;;;;;5.05;3.53;;;1.50;99.90;;;;;;5115571;27;20909;-74
2022/11/19 10:20:10;;;;;;;5.82;3.75;;;1.50;99.90;;;;;;5106632;27;20521;-74
2022/11/19 10:23:03;;;;;;;4.75;3.50;;;2.10;99.90;;;;;;5104431;27;20542;-75
2022/11/19 10:25:37;;;;;;;6.05;4.15;;;3.70;99.90;;;;;;5107722;28;20436;-75
2022/11/19 10:28:17;;;;;;;5.10;3.60;;;5.20;99.90;;;;;;5107000;27;20973;-75
2022/11/19 10:30:49;;;;;;;5.70;3.70;;;6.30;99.90;;;;;;5108194;27;20403;-75
2022/11/19 10:33:24;;;;;;;5.20;3.55;;;6.80;99.90;;;;;;5109929;27;20438;-76
2022/11/19 10:35:56;;;;;;;6.25;3.67;;;6.60;99.90;;;;;;5127659;27;20991;-75
2022/11/19 10:38:37;;;;;;;5.75;3.75;;;6.40;99.90;;;;;;5106728;27;20451;-75
2022/11/19 10:41:28;;;;;;;8.60;4.68;;;6.00;99.90;;;;;;5097253;27;20414;-75
2022/11/19 10:43:59;;;;;;;5.53;3.90;;;5.40;99.90;;;;;;5095077;27;20406;-75
2022/11/19 10:46:27;;;;;;;5.03;3.72;;;4.90;99.90;;;;;;5109611;27;20765;-75
2022/11/19 10:48:56;;;;;;;6.07;3.80;;;4.80;99.90;;;;;;5107083;27;20467;-75
2022/11/19 10:51:27;;;;;;;5.18;3.70;;;5.10;99.90;;;;;;5121414;27;20406;-75
2022/11/19 10:53:54;;;;;;;4.90;3.53;;;5.90;99.90;;;;;;5101882;28;20416;-75
2022/11/19 10:56:39;;;;;;;5.20;3.80;;;6.80;99.90;;;;;;5117287;27;20462;-75
2022/11/19 10:59:27;;;;;;;5.53;4.10;;;8.00;99.90;;;;;;5122266;27;20475;-75
2022/11/19 11:02:01;;;;;;;5.97;4.20;;;9.10;99.90;;;;;;5092548;28;20409;-75
2022/11/19 11:04:28;;;;;;;6.50;4.68;;;9.70;99.90;;;;;;5126857;28;20429;-75
2022/11/19 11:07:02;;;;;;;5.10;3.80;;;10.20;97.10;;;;;;5110023;27;20508;-75
2022/11/19 11:09:45;;;;;;;7.00;4.50;;;10.50;96.60;;;;;;5118907;27;20473;-75
2022/11/19 11:15:26;;;;;;;6.22;4.25;;;10.90;94.60;;;;;;5118256;28;20418;-76
2022/11/19 11:18:06;;;;;;;7.30;4.68;;;11.20;96.60;;;;;;5125250;28;20491;-76
2022/11/19 11:20:32;;;;;;;6.00;4.20;;;11.60;95.00;;;;;;5122606;28;20791;-76
2022/11/19 11:23:12;;;;;;;6.00;4.25;;;11.70;95.20;;;;;;5104319;28;20473;-75
2022/11/19 11:25:39;;;;;;;6.90;4.13;;;11.50;94.10;;;;;;5121084;28;20414;-76
2022/11/19 11:28:14;;;;;;;6.60;4.60;;;10.80;94.80;;;;;;5117544;28;20406;-76
2022/11/19 11:31:00;;;;;;;27.38;6.70;;;9.90;94.40;;;;;;5104418;28;20481;-75
2022/11/19 11:33:47;;;;;;;6.77;4.27;;;9.00;95.20;;;;;;5102621;28;20411;-75
2022/11/19 11:36:21;;;;;;;5.53;3.88;;;8.50;96.10;;;;;;5100330;28;20427;-75
2022/11/19 11:38:49;;;;;;;5.93;4.03;;;7.90;96.50;;;;;;5108538;28;20471;-75
2022/11/19 11:41:19;;;;;;;6.25;3.90;;;7.20;98.00;;;;;;5127532;27;20421;-74
2022/11/19 11:44:02;;;;;;;5.82;3.78;;;6.70;99.30;;;;;;5113823;27;20411;-74
2022/11/19 11:46:47;;;;;;;6.90;3.70;;;6.40;99.70;;;;;;5092287;27;20424;-74
2022/11/19 11:49:33;;;;;;;6.15;3.67;;;5.90;99.90;;;;;;5131090;27;20960;-75
2022/11/19 11:52:08;;;;;;;4.95;3.60;;;5.60;99.90;;;;;;5106126;27;20426;-74
2022/11/19 11:54:55;;;;;;;4.97;3.38;;;5.40;99.90;;;;;;5120849;27;20447;-75
2022/11/19 11:57:27;;;;;;;5.20;3.90;;;5.10;99.90;;;;;;5106239;27;20418;-74
2022/11/19 11:59:53;;;;;;;5.90;3.78;;;4.90;99.90;;;;;;5118862;27;20466;-74
2022/11/19 12:02:20;;;;;;;5.63;3.75;;;4.70;99.90;;;;;;5108859;28;20443;-74
2022/11/19 12:04:47;;;;;;;7.30;4.45;;;4.70;99.90;;;;;;5122533;27;20491;-74
2022/11/19 12:07:34;;;;;;;6.18;4.35;;;4.60;99.90;;;;;;5122249;27;20477;-74
2022/11/19 12:10:24;;;;;;;7.13;4.65;;;4.60;99.90;;;;;;5108231;28;20793;-74
2022/11/19 12:13:06;;;;;;;6.95;4.65;;;4.80;99.90;;;;;;5129014;27;20458;-74
2022/11/19 12:16:01;;;;;;;6.70;4.85;;;4.90;99.90;;;;;;5101352;27;20457;-74
2022/11/19 12:18:50;;;;;;;5.43;3.78;;;4.90;99.90;;;;;;5124477;27;20424;-74
2022/11/19 12:21:44;;;;;;;5.45;3.72;;;4.80;99.90;;;;;;5128061;27;20439;-74
2022/11/19 12:24:37;;;;;;;6.03;3.88;;;4.60;99.90;;;;;;5099279;27;20415;-75
2022/11/19 12:27:18;;;;;;;7.10;4.05;;;4.40;99.90;;;;;;5124261;27;20501;-74
2022/11/19 12:29:53;;;;;;;4.43;3.30;;;4.30;99.90;;;;;;5106888;28;20427;-74
2022/11/19 12:32:39;;;;;;;4.22;3.20;;;4.20;99.90;;;;;;5108475;27;20435;-74
2022/11/19 12:35:42;;;;;;;5.03;3.60;;;4.20;99.90;;;;;;5124376;27;20413;-74
2022/11/19 12:38:18;;;;;;;5.72;3.97;;;4.10;99.90;;;;;;5122161;27;20427;-74
2022/11/19 12:40:59;;;;;;;4.95;3.42;;;4.00;99.90;;;;;;5112003;27;20431;-74
2022/11/19 12:43:34;;;;;;;4.65;3.15;;;3.90;99.90;;;;;;5123617;27;20423;-74
2022/11/19 12:46:03;;;;;;;5.30;3.50;;;4.00;99.90;;;;;;5130327;27;20451;-74
2022/11/19 12:48:37;;;;;;;5.75;3.72;;;4.10;99.90;;;;;;5107214;27;20419;-74
2022/11/19 12:51:03;;;;;;;5.37;3.30;;;4.20;99.90;;;;;;5111696;27;20412;-74
2022/11/19 12:53:32;;;;;;;5.87;3.43;;;4.40;99.90;;;;;;5104440;27;20962;-74
2022/11/19 12:56:21;;;;;;;5.03;3.47;;;4.40;99.90;;;;;;5112795;27;20397;-74
2022/11/19 12:59:14;;;;;;;4.50;3.35;;;4.40;99.90;;;;;;5129301;27;20440;-75
2022/11/19 13:01:44;;;;;;;4.57;3.20;;;4.40;99.90;;;;;;5085368;28;20463;-74
2022/11/19 13:04:34;;;;;;;5.03;3.43;;;4.30;99.90;;;;;;5103095;27;20407;-74
2022/11/19 13:07:19;;;;;;;5.50;3.60;;;4.20;99.90;;;;;;5103330;27;20495;-75
2022/11/19 13:09:57;;;;;;;6.90;3.47;;;4.20;99.90;;;;;;5103556;27;20410;-74
2022/11/19 13:12:30;;;;;;;5.40;3.53;;;4.10;99.90;;;;;;5127635;27;20924;-75
2022/11/19 13:15:02;;;;;;;5.30;3.60;;;4.00;99.90;;;;;;5111851;27;20449;-75
2022/11/19 13:17:39;;;;;;;6.47;3.60;;;4.00;99.90;;;;;;5106452;27;20418;-75
2022/11/19 13:20:23;;;;;;;5.60;3.67;;;4.10;99.90;;;;;;5131188;27;20526;-74
2022/11/19 13:22:52;;;;;;;5.50;4.07;;;4.30;99.90;;;;;;5120844;27;20482;-75
2022/11/19 13:25:26;;;;;;;6.00;3.83;;;4.40;99.90;;;;;;5127947;27;20923;-75
2022/11/19 13:27:54;;;;;;;4.57;3.13;;;4.50;99.90;;;;;;5092820;28;20917;-75
2022/11/19 13:30:25;;;;;;;6.20;3.53;;;4.50;99.90;;;;;;5115232;27;20898;-75
2022/11/19 13:33:16;;;;;;;5.47;3.53;;;4.40;99.90;;;;;;5100158;27;20509;-75